Logo AVAMET
Benvolgut visitant, si us plau, ingressa Recuperar contrasenya

Elx la Gàl·lia AEMET

Dades diàries. Acumulats / Últims 30 dies disponibles

Data Temperatura (°C) Humitat rel. (%) Pressió rel. (hPa) Vent (km/h) Precipitació
Mínima Mitjana Màxima Amplitud
tèrmica
Mínima Mitjana Màxima Mínima Mitjana Màxima Predom. Mitjana Ràfega
màxima
Total
(mm)
Índex-n
Mínima Mitjana Màxima Mínima Mitjana Màxima n
0 a 1
P0 max
mm 5'
Dades mensuals acumulades fins l'últim dia disponible
09/2019 15,7 18,8 23,3 23,4 20,6 28,0 33,2 17,5   143,2
Dades anuals acumulades fins l'últim dia disponible
2019 1,7 13,0 25,3 19,2 13,9 25,3 40,3 38,6   363,6
Últims 30 dies disponibles
15-09-2019 19,5     24,8     30,0 10,5 0,2
14-09-2019 18,1     22,5     26,9 8,8 9,8
13-09-2019 18,2     21,4     24,5 6,3 17,0
12-09-2019 15,8     18,2     20,6 4,8 104,4
11-09-2019 15,7     19,2     22,7 7,0 7,8
10-09-2019 16,8     23,8     30,7 13,9 0,2
09-09-2019 17,3     23,3     29,4 12,1 0,0
08-09-2019 17,7     23,0     28,2 10,5 0,0
07-09-2019 20,3     23,8     27,2 6,9 2,0
06-09-2019        
05-09-2019 20,9     25,1     29,4 8,5 0,0
04-09-2019 20,1     25,3     30,4 10,3 0,0
03-09-2019 20,4     25,3     30,1 9,7 0,0
02-09-2019 23,3     25,9     28,5 5,2 1,8
01-09-2019 19,0     26,1     33,2 14,2 0,0
31-08-2019 19,0     25,8     32,5 13,5 0,0
30-08-2019 18,7     25,5     32,2 13,5 0,0
29-08-2019 19,7     25,4     31,1 11,4 0,2
28-08-2019 18,1     24,1     30,1 12,0 0,4
27-08-2019 18,8     25,0     31,2 12,4 11,4
26-08-2019 21,8     25,5     29,2 7,4 0,2
25-08-2019 19,3     24,8     30,4 11,1 0,0
24-08-2019 18,3     24,4     30,6 12,3 0,0
23-08-2019 18,5     24,7     30,9 12,4 0,0
22-08-2019 20,1     24,9     29,6 9,5 0,2
21-08-2019 22,2     25,3     28,4 6,2 33,6
20-08-2019 22,9     27,9     32,9 10,0 0,0
19-08-2019 19,5     25,9     32,2 12,7 0,0
18-08-2019 19,0     26,9     34,8 15,8 0,0
17-08-2019 18,7     26,6     34,5 15,8 0,0
Últims 13 mesos disponibles
08/2019 18,1 20,8 25,3 26,9 28,4 33,0 40,3 22,2 46,4
07/2019 18,0 21,1 24,7 27,3 29,2 33,4 38,0 20,0 0,0
06/2019 11,4 16,4 20,8 23,0 24,8 29,7 36,4 25,0 0,2
05/2019 10,2 13,1 18,6 19,1 21,0 25,0 31,1 20,9 1,4
04/2019 5,6 10,4 15,2 16,0 14,3 21,4 30,6 25,0 155,2
03/2019 4,7 7,6 12,2 14,3 14,7 21,1 30,3 25,6 15,6
02/2019 3,6 6,5 10,8 13,1 15,2 19,6 26,4 22,8 0,6
01/2019 1,7 6,1 11,0 12,1 13,9 18,1 23,4 21,7 1,0
12/2018 4,7 8,2 12,5 14,0 14,4 19,9 26,7 22,0 8,0
11/2018 4,7 10,1 13,8 15,1 14,4 20,1 23,9 19,2 41,4
10/2018 6,2 13,8 18,9 19,4 14,8 25,0 29,6 23,4 41,0
09/2018 14,7 20,1 22,4 25,2 26,6 30,3 33,4 18,7 23,2
08/2018 18,9 21,8 24,5 27,4 30,2 33,1 38,0 19,1 10,6
Tots els anys disponibles
2018 1,4 13,3 24,5 19,1 9,2 24,8 38,0 36,6 267,4
2017 0,9 12,9 26,9 18,9 7,7 24,8 38,6 37,7 252,0
2016 4,1 13,9 23,4 19,5 12,4 25,1 40,2 36,1 259,6
2015 1,1 12,2 26,0 18,0 11,0 23,7 40,9 39,8 126,6
2014 1,8 13,5 24,9 19,4 12,1 25,3 38,5 36,7 145,6
2013 0,4 13,2 17,2 19,3 21,3 25,4 38,4 38,0 194,4
2012 -0,8 13,5 24,7 19,7 11,0 25,8 40,8 41,6 237,2
Temperatura (°C)
Humitat relativa (%)
Velocitat del vent i ràfega màxima (km/h)
Direcció del vent (°)
Pressió (hPa)
Precipitació (mm)
Nota sobre les dades: s'avisa a l'usuari de la provisionalitat i no oficialitat d'aquestes dades
Logo AVAMET blanc
Web allotjada a Sollutia
Llicència de Creative CommonsLa web d'AVAMET i els seus continguts estan subjectes a una llicència de
Reconeixement - No Comercial - Compartir igual
Properes estacions: Altea - Club Nàutic d'Altea (Soci),    - - - - -      Últimes estacions: Llíria - Bodegas del Campo (Soci), La Pobla Tornesa (Soci), Quartell (Soci), Alzira - Est (Soci/Inforatge), San Miguel de las Salinas (MeteOrihuela), Segorbe (Inforatge), Alcalà de Xivert - Alcossebre (Inforatge), Moixent - la Foia (Soci), Callosa d'en Sarrià - Centre (Soci) - - -